createdAt,value
2022-08-28T00:00:14.798Z,9.20
2022-08-28T00:03:02.747Z,9.60
2022-08-28T00:05:32.111Z,9.10
2022-08-28T00:08:00.780Z,8.70
2022-08-28T00:10:30.165Z,9.30
2022-08-28T00:12:58.599Z,9.00
2022-08-28T00:15:35.437Z,9.10
2022-08-28T00:18:05.352Z,10.10
2022-08-28T00:20:34.643Z,8.90
2022-08-28T00:23:02.524Z,9.30
2022-08-28T00:25:30.696Z,9.50
2022-08-28T00:28:08.531Z,9.70
2022-08-28T00:30:41.765Z,8.90
2022-08-28T00:33:18.361Z,9.20
2022-08-28T00:35:47.850Z,8.10
2022-08-28T00:38:19.221Z,8.70
2022-08-28T00:40:51.405Z,8.50
2022-08-28T00:43:39.989Z,7.90
2022-08-28T00:46:18.476Z,8.60
2022-08-28T00:48:47.530Z,8.70
2022-08-28T00:51:35.678Z,8.40
2022-08-28T00:54:07.718Z,8.10
2022-08-28T00:56:39.811Z,8.30
2022-08-28T00:59:13.821Z,7.80
2022-08-28T01:01:43.353Z,7.80
2022-08-28T01:04:17.036Z,8.70
2022-08-28T01:06:53.387Z,9.00
2022-08-28T01:09:25.859Z,9.00
2022-08-28T01:11:57.838Z,8.90
2022-08-28T01:14:26.607Z,8.00
2022-08-28T01:16:56.129Z,7.90
2022-08-28T01:19:31.467Z,8.60
2022-08-28T01:22:20.593Z,8.00
2022-08-28T01:24:51.792Z,8.10
2022-08-28T01:27:19.570Z,8.00
2022-08-28T01:29:48.082Z,8.00
2022-08-28T01:32:37.635Z,8.60
2022-08-28T01:35:10.970Z,8.40
2022-08-28T01:40:09.365Z,7.00
2022-08-28T01:42:39.194Z,8.60
2022-08-28T01:45:10.884Z,8.20
2022-08-28T01:47:39.243Z,8.60
2022-08-28T01:50:10.463Z,8.00
2022-08-28T01:55:08.978Z,8.00
2022-08-28T01:57:44.568Z,8.20
2022-08-28T02:00:13.893Z,7.60
2022-08-28T02:02:41.690Z,8.30
2022-08-28T02:05:10.800Z,8.70
2022-08-28T02:07:38.823Z,8.00
2022-08-28T02:10:10.099Z,8.00
2022-08-28T02:12:38.792Z,7.50
2022-08-28T02:15:07.606Z,8.10
2022-08-28T02:17:35.210Z,7.90
2022-08-28T02:20:04.742Z,8.40
2022-08-28T02:22:32.439Z,8.60
2022-08-28T02:25:00.699Z,8.40
2022-08-28T02:27:28.460Z,8.20
2022-08-28T02:29:56.453Z,8.50
2022-08-28T02:32:25.607Z,8.00
2022-08-28T02:34:54.709Z,7.90
2022-08-28T02:37:24.438Z,8.50
2022-08-28T02:39:57.029Z,8.40
2022-08-28T02:42:26.191Z,8.20
2022-08-28T02:44:53.861Z,8.40
2022-08-28T02:47:21.510Z,8.20
2022-08-28T02:49:49.144Z,8.50
2022-08-28T02:52:19.013Z,8.20
2022-08-28T02:54:47.365Z,9.00
2022-08-28T02:57:15.120Z,8.60
2022-08-28T02:59:43.943Z,8.90
2022-08-28T03:02:11.622Z,8.20
2022-08-28T03:04:39.752Z,8.80
2022-08-28T03:07:09.265Z,8.40
2022-08-28T03:09:41.532Z,8.40
2022-08-28T03:12:10.625Z,9.20
2022-08-28T03:14:38.234Z,8.50
2022-08-28T03:17:07.383Z,9.60
2022-08-28T03:19:35.488Z,9.10
2022-08-28T03:22:03.297Z,8.20
2022-08-28T03:24:30.934Z,7.90
2022-08-28T03:27:01.713Z,8.30
2022-08-28T03:29:30.404Z,9.50
2022-08-28T03:31:58.015Z,9.10
2022-08-28T03:34:25.958Z,8.90
2022-08-28T03:36:53.583Z,8.80
2022-08-28T03:39:21.195Z,9.00
2022-08-28T03:41:48.884Z,8.70
2022-08-28T03:44:17.546Z,8.80
2022-08-28T03:46:45.167Z,9.00
2022-08-28T03:49:13.436Z,9.90
2022-08-28T03:51:41.653Z,9.20
2022-08-28T03:54:09.274Z,9.00
2022-08-28T03:56:36.867Z,8.30
2022-08-28T03:59:05.337Z,9.00
2022-08-28T04:01:33.653Z,9.70
2022-08-28T04:04:01.969Z,9.30
2022-08-28T04:06:29.991Z,9.80
2022-08-28T04:08:59.919Z,9.40
2022-08-28T04:11:28.815Z,9.10
2022-08-28T04:13:56.872Z,8.70
2022-08-28T04:16:24.537Z,8.40
2022-08-28T04:18:52.196Z,8.10
2022-08-28T04:21:28.816Z,8.80
2022-08-28T04:23:56.457Z,8.80
2022-08-28T04:26:25.794Z,10.00
2022-08-28T04:28:55.200Z,9.20
2022-08-28T04:31:32.128Z,9.10
2022-08-28T04:34:02.349Z,8.20
2022-08-28T04:36:30.542Z,8.70
2022-08-28T04:38:58.731Z,8.10
2022-08-28T04:41:27.620Z,8.00
2022-08-28T04:43:57.331Z,8.10
2022-08-28T04:46:25.303Z,10.00
2022-08-28T04:48:53.030Z,7.80
2022-08-28T04:51:20.898Z,8.20
2022-08-28T04:53:49.729Z,8.90
2022-08-28T04:56:18.204Z,8.50
2022-08-28T04:58:45.840Z,8.20
2022-08-28T05:01:18.669Z,8.80
2022-08-28T05:03:48.158Z,8.30
2022-08-28T05:06:16.580Z,7.60
2022-08-28T05:08:44.234Z,8.00
2022-08-28T05:11:32.900Z,8.10
2022-08-28T05:14:05.622Z,8.30
2022-08-28T05:16:39.597Z,7.90
2022-08-28T05:19:07.250Z,8.40
2022-08-28T05:21:35.217Z,8.00
2022-08-28T05:24:03.231Z,8.20
2022-08-28T05:26:31.001Z,8.10
2022-08-28T05:28:59.890Z,7.60
2022-08-28T05:31:30.011Z,8.40
2022-08-28T05:33:59.842Z,7.90
2022-08-28T05:36:32.883Z,7.90
2022-08-28T05:41:31.274Z,7.70
2022-08-28T05:44:04.796Z,8.20
2022-08-28T05:49:00.342Z,8.40
2022-08-28T05:51:28.564Z,7.90
2022-08-28T05:53:57.563Z,8.10
2022-08-28T05:56:29.808Z,8.90
2022-08-28T05:59:00.436Z,8.10
2022-08-28T06:01:32.186Z,7.50
2022-08-28T06:04:02.966Z,7.70
2022-08-28T06:06:34.283Z,7.30
2022-08-28T06:09:16.861Z,8.10
2022-08-28T06:11:46.453Z,7.60
2022-08-28T06:14:18.240Z,8.00
2022-08-28T06:16:49.062Z,8.50
2022-08-28T06:19:18.107Z,8.10
2022-08-28T06:21:51.341Z,8.40
2022-08-28T06:26:46.976Z,8.20
2022-08-28T06:29:18.321Z,8.10
2022-08-28T06:31:54.720Z,7.50
2022-08-28T06:34:22.871Z,7.90
2022-08-28T06:36:53.985Z,7.60
2022-08-28T06:39:22.334Z,7.40
2022-08-28T06:41:50.367Z,7.90
2022-08-28T06:44:20.514Z,8.10
2022-08-28T06:46:51.277Z,7.60
2022-08-28T06:49:19.245Z,7.30
2022-08-28T06:51:47.072Z,6.90
2022-08-28T06:54:22.247Z,7.70
2022-08-28T06:56:52.123Z,8.20
2022-08-28T06:59:20.157Z,7.20
2022-08-28T07:01:48.000Z,8.00
2022-08-28T07:04:15.781Z,7.90
2022-08-28T07:06:54.215Z,7.80
2022-08-28T07:09:24.278Z,7.30
2022-08-28T07:11:52.552Z,7.70
2022-08-28T07:14:20.339Z,8.30
2022-08-28T07:16:47.968Z,7.30
2022-08-28T07:19:16.000Z,8.80
2022-08-28T07:21:45.467Z,7.90
2022-08-28T07:24:15.249Z,7.20
2022-08-28T07:26:44.588Z,7.30
2022-08-28T07:29:12.907Z,8.00
2022-08-28T07:31:43.957Z,7.80
2022-08-28T07:34:13.775Z,7.60
2022-08-28T07:36:41.824Z,7.50
2022-08-28T07:39:11.214Z,7.20
2022-08-28T07:41:42.388Z,7.30
2022-08-28T07:44:29.373Z,7.60
2022-08-28T07:47:00.429Z,7.50
2022-08-28T07:49:28.165Z,7.80
2022-08-28T07:51:55.801Z,7.60
2022-08-28T07:54:24.216Z,7.50
2022-08-28T07:56:52.533Z,7.00
2022-08-28T07:59:20.160Z,6.70
2022-08-28T08:01:50.543Z,6.90
2022-08-28T08:04:21.355Z,6.80
2022-08-28T08:06:54.390Z,7.80
2022-08-28T08:09:26.511Z,6.80
2022-08-28T08:11:56.506Z,8.00
2022-08-28T08:14:25.516Z,8.10
2022-08-28T08:16:53.577Z,8.50
2022-08-28T08:19:21.361Z,9.10
2022-08-28T08:21:53.194Z,7.40
2022-08-28T08:24:26.707Z,8.30
2022-08-28T08:26:59.901Z,8.60
2022-08-28T08:29:31.734Z,8.20
2022-08-28T08:32:05.740Z,7.70
2022-08-28T08:34:36.523Z,7.40
2022-08-28T08:37:05.795Z,7.60
2022-08-28T08:39:34.999Z,8.00
2022-08-28T08:42:06.852Z,8.20
2022-08-28T08:44:40.243Z,7.20
2022-08-28T08:47:26.491Z,7.60
2022-08-28T08:49:57.081Z,7.90
2022-08-28T08:52:31.062Z,7.30
2022-08-28T08:55:23.343Z,7.40
2022-08-28T08:57:59.432Z,6.70
2022-08-28T09:00:28.995Z,6.60
2022-08-28T09:03:04.919Z,6.70
2022-08-28T09:05:55.913Z,6.40
2022-08-28T09:08:48.808Z,7.20
2022-08-28T09:11:44.239Z,7.00
2022-08-28T09:14:32.878Z,6.80
2022-08-28T09:17:01.581Z,6.60
2022-08-28T09:19:29.870Z,5.90
2022-08-28T09:21:57.618Z,5.70
2022-08-28T09:24:28.967Z,5.80
2022-08-28T09:26:59.064Z,7.00
2022-08-28T09:29:37.300Z,6.20
2022-08-28T09:32:18.419Z,7.50
2022-08-28T09:35:06.285Z,6.60
2022-08-28T09:37:36.196Z,6.80
2022-08-28T09:40:25.290Z,7.20
2022-08-28T09:43:31.631Z,7.20
2022-08-28T09:46:04.552Z,6.70
2022-08-28T09:48:43.241Z,8.00
2022-08-28T09:51:14.488Z,7.00
2022-08-28T09:54:02.084Z,7.50
2022-08-28T09:56:36.076Z,7.30
2022-08-28T09:59:23.968Z,7.80
2022-08-28T10:02:10.553Z,6.50
2022-08-28T10:05:07.724Z,6.90
2022-08-28T10:07:57.738Z,7.40
2022-08-28T10:10:53.759Z,8.10
2022-08-28T10:13:40.124Z,8.70
2022-08-28T10:16:09.704Z,8.10
2022-08-28T10:18:48.603Z,8.30
2022-08-28T10:21:48.208Z,7.70
2022-08-28T10:24:47.989Z,8.40
2022-08-28T10:27:48.317Z,7.50
2022-08-28T10:30:21.613Z,7.80
2022-08-28T10:33:08.276Z,7.40
2022-08-28T10:36:07.835Z,6.60
2022-08-28T10:39:17.792Z,7.30
2022-08-28T10:41:54.047Z,10.50
2022-08-28T10:44:31.701Z,5.70
2022-08-28T10:47:00.339Z,6.60
2022-08-28T10:49:31.386Z,6.20
2022-08-28T10:52:18.075Z,6.80
2022-08-28T10:54:54.983Z,5.80
2022-08-28T10:57:44.522Z,6.40
2022-08-28T11:00:17.622Z,5.30
2022-08-28T11:02:49.972Z,6.20
2022-08-28T11:05:23.518Z,6.10
2022-08-28T11:07:56.382Z,6.50
2022-08-28T11:13:10.287Z,5.80
2022-08-28T11:15:41.710Z,5.70
2022-08-28T11:18:19.101Z,5.70
2022-08-28T11:21:16.643Z,6.20
2022-08-28T11:23:55.968Z,6.30
2022-08-28T11:26:33.876Z,7.10
2022-08-28T11:29:04.102Z,7.50
2022-08-28T11:31:36.029Z,6.90
2022-08-28T11:34:05.574Z,6.50
2022-08-28T11:36:33.174Z,6.40
2022-08-28T11:39:20.824Z,6.20
2022-08-28T11:42:10.278Z,6.20
2022-08-28T11:44:44.758Z,7.00
2022-08-28T11:47:34.440Z,6.70
2022-08-28T11:50:30.748Z,5.90
2022-08-28T11:53:14.111Z,6.10
2022-08-28T11:55:47.640Z,7.10
2022-08-28T11:58:26.383Z,7.60
2022-08-28T12:01:04.359Z,6.40
2022-08-28T12:03:53.785Z,6.10
2022-08-28T12:06:52.817Z,6.60
2022-08-28T12:09:26.175Z,7.30
2022-08-28T12:11:57.466Z,7.20
2022-08-28T12:14:25.030Z,7.20
2022-08-28T12:16:58.709Z,7.40
2022-08-28T12:19:58.920Z,6.60
2022-08-28T12:22:43.845Z,7.40
2022-08-28T12:25:24.754Z,7.10
2022-08-28T12:27:53.791Z,6.70
2022-08-28T12:30:37.427Z,7.10
2022-08-28T12:33:20.504Z,6.80
2022-08-28T12:35:49.723Z,7.30
2022-08-28T12:38:21.900Z,8.00
2022-08-28T12:43:32.241Z,6.00
2022-08-28T12:46:04.300Z,7.30
2022-08-28T12:48:50.724Z,7.10
2022-08-28T12:51:24.554Z,6.90
2022-08-28T12:53:55.450Z,7.30
2022-08-28T12:56:25.899Z,7.90
2022-08-28T12:58:53.501Z,6.90
2022-08-28T13:01:21.359Z,7.30
2022-08-28T13:03:52.323Z,6.20
2022-08-28T13:06:37.742Z,7.40
2022-08-28T13:09:17.016Z,6.90
2022-08-28T13:11:49.036Z,7.10
2022-08-28T13:14:36.782Z,6.70
2022-08-28T13:17:05.389Z,7.50
2022-08-28T13:19:34.881Z,6.50
2022-08-28T13:22:08.563Z,8.10
2022-08-28T13:24:39.086Z,7.40
2022-08-28T13:27:12.192Z,7.70
2022-08-28T13:29:57.160Z,6.70
2022-08-28T13:32:30.785Z,7.70
2022-08-28T13:35:21.407Z,7.00
2022-08-28T13:37:58.814Z,7.20
2022-08-28T13:40:57.567Z,8.30
2022-08-28T13:43:30.296Z,7.50
2022-08-28T13:45:58.126Z,6.60
2022-08-28T13:48:27.410Z,6.70
2022-08-28T13:51:05.137Z,7.30
2022-08-28T13:53:39.049Z,7.30
2022-08-28T13:56:07.311Z,7.60
2022-08-28T13:58:35.006Z,7.10
2022-08-28T14:01:02.825Z,6.20
2022-08-28T14:03:37.529Z,6.80
2022-08-28T14:06:11.460Z,6.10
2022-08-28T14:08:40.971Z,6.30
2022-08-28T14:11:11.867Z,6.10
2022-08-28T14:16:25.294Z,7.10
2022-08-28T14:18:53.788Z,7.40
2022-08-28T14:21:24.336Z,8.10
2022-08-28T14:23:51.950Z,7.10
2022-08-28T14:26:19.537Z,5.70
2022-08-28T14:28:47.178Z,5.90
2022-08-28T14:31:15.502Z,5.90
2022-08-28T14:33:45.042Z,6.50
2022-08-28T14:36:16.210Z,6.10
2022-08-28T14:38:44.101Z,6.60
2022-08-28T14:41:12.302Z,6.00
2022-08-28T14:43:43.504Z,6.60
2022-08-28T14:46:16.781Z,5.20
2022-08-28T14:48:45.242Z,6.10
2022-08-28T14:51:14.371Z,5.40
2022-08-28T14:53:42.250Z,6.00
2022-08-28T14:56:10.765Z,6.80
2022-08-28T14:58:39.023Z,5.90
2022-08-28T15:01:07.084Z,6.00
2022-08-28T15:03:35.816Z,6.10
2022-08-28T15:06:09.278Z,6.90
2022-08-28T15:08:38.066Z,6.40
2022-08-28T15:11:14.207Z,6.10
2022-08-28T15:13:46.791Z,6.00
2022-08-28T15:16:29.310Z,6.30
2022-08-28T15:18:59.413Z,6.10
2022-08-28T15:21:32.505Z,6.20
2022-08-28T15:24:03.027Z,6.60
2022-08-28T15:26:31.592Z,6.50
2022-08-28T15:29:03.283Z,6.10
2022-08-28T15:31:33.580Z,6.50
2022-08-28T15:34:13.341Z,6.40
2022-08-28T15:36:43.902Z,6.90
2022-08-28T15:39:29.091Z,8.20
2022-08-28T15:41:57.993Z,7.90
2022-08-28T15:44:26.244Z,6.70
2022-08-28T15:46:56.649Z,8.00
2022-08-28T15:49:26.878Z,8.10
2022-08-28T15:51:54.595Z,7.60
2022-08-28T15:54:23.721Z,7.70
2022-08-28T15:56:53.869Z,7.30
2022-08-28T15:59:22.706Z,7.80
2022-08-28T16:01:53.225Z,8.80
2022-08-28T16:04:20.983Z,8.80
2022-08-28T16:06:48.773Z,8.20
2022-08-28T16:09:24.437Z,7.70
2022-08-28T16:11:52.086Z,9.00
2022-08-28T16:14:21.151Z,7.70
2022-08-28T16:16:50.823Z,9.10
2022-08-28T16:19:18.818Z,8.30
2022-08-28T16:21:46.448Z,9.00
2022-08-28T16:24:14.471Z,8.50
2022-08-28T16:26:42.273Z,8.30
2022-08-28T16:29:09.883Z,18.20
2022-08-28T16:31:37.832Z,18.30
2022-08-28T16:34:06.809Z,11.40
2022-08-28T16:36:38.509Z,11.20
2022-08-28T16:39:10.734Z,29.70
2022-08-28T16:41:39.015Z,13.20
2022-08-28T16:44:06.797Z,11.10
2022-08-28T16:46:34.601Z,10.50
2022-08-28T16:49:03.014Z,11.10
2022-08-28T16:51:30.845Z,16.00
2022-08-28T16:53:58.528Z,14.80
2022-08-28T16:56:26.709Z,16.60
2022-08-28T16:58:55.402Z,21.00
2022-08-28T17:01:24.631Z,23.40
2022-08-28T17:03:54.527Z,21.20
2022-08-28T17:06:29.238Z,25.10
2022-08-28T17:08:57.776Z,44.20
2022-08-28T17:11:26.853Z,32.20
2022-08-28T17:13:55.470Z,24.00
2022-08-28T17:16:26.020Z,20.20
2022-08-28T17:18:53.756Z,15.70
2022-08-28T17:21:37.503Z,14.50
2022-08-28T17:24:05.396Z,13.90
2022-08-28T17:26:33.159Z,11.60
2022-08-28T17:29:00.794Z,10.60
2022-08-28T17:31:28.552Z,11.30
2022-08-28T17:33:56.175Z,12.30
2022-08-28T17:36:33.177Z,11.30
2022-08-28T17:39:04.386Z,11.30
2022-08-28T17:41:33.406Z,12.00
2022-08-28T17:44:02.367Z,12.10
2022-08-28T17:46:34.088Z,12.30
2022-08-28T17:49:07.380Z,11.90
2022-08-28T17:51:43.213Z,13.70
2022-08-28T17:54:18.217Z,12.50
2022-08-28T17:56:46.325Z,10.90
2022-08-28T17:59:15.405Z,10.60
2022-08-28T18:01:44.884Z,12.30
2022-08-28T18:04:17.979Z,11.50
2022-08-28T18:06:51.595Z,11.50
2022-08-28T18:09:19.650Z,11.90
2022-08-28T18:11:47.287Z,13.00
2022-08-28T18:14:14.996Z,11.40
2022-08-28T18:16:43.080Z,10.80
2022-08-28T18:19:11.850Z,11.00
2022-08-28T18:21:41.034Z,10.60
2022-08-28T18:24:12.815Z,12.90
2022-08-28T18:26:41.262Z,10.30
2022-08-28T18:29:10.284Z,9.80
2022-08-28T18:31:38.015Z,10.40
2022-08-28T18:34:06.288Z,10.90
2022-08-28T18:36:39.803Z,10.10
2022-08-28T18:39:07.805Z,11.00
2022-08-28T18:41:43.234Z,11.10
2022-08-28T18:44:15.140Z,10.70
2022-08-28T18:46:44.412Z,10.40
2022-08-28T18:49:12.687Z,10.70
2022-08-28T18:51:43.326Z,11.70
2022-08-28T18:54:14.618Z,11.50
2022-08-28T18:56:45.683Z,11.90
2022-08-28T18:59:13.447Z,10.90
2022-08-28T19:01:42.049Z,11.10
2022-08-28T19:04:09.850Z,11.30
2022-08-28T19:06:38.044Z,11.80
2022-08-28T19:09:06.342Z,12.70
2022-08-28T19:11:35.738Z,15.00
2022-08-28T19:14:03.789Z,12.90
2022-08-28T19:16:32.190Z,11.20
2022-08-28T19:19:03.211Z,11.80
2022-08-28T19:21:32.221Z,12.40
2022-08-28T19:24:00.032Z,12.00
2022-08-28T19:26:27.709Z,12.60
2022-08-28T19:28:56.065Z,12.40
2022-08-28T19:31:26.544Z,12.90
2022-08-28T19:33:54.450Z,13.30
2022-08-28T19:36:22.593Z,14.20
2022-08-28T19:38:50.669Z,12.30
2022-08-28T19:41:18.640Z,13.40
2022-08-28T19:43:46.218Z,12.00
2022-08-28T19:46:19.665Z,11.30
2022-08-28T19:48:50.233Z,12.60
2022-08-28T19:51:22.863Z,12.10
2022-08-28T19:53:57.713Z,11.70
2022-08-28T19:56:32.307Z,11.10
2022-08-28T19:59:02.037Z,12.10
2022-08-28T20:01:36.560Z,12.20
2022-08-28T20:04:06.531Z,10.30
2022-08-28T20:06:35.691Z,9.80
2022-08-28T20:09:08.313Z,9.40
2022-08-28T20:11:41.994Z,9.70
2022-08-28T20:14:09.978Z,9.80
2022-08-28T20:16:40.420Z,9.90
2022-08-28T20:30:54.998Z,5.80
2022-08-28T20:33:22.742Z,4.80
2022-08-28T20:36:03.012Z,5.90
2022-08-28T20:38:32.235Z,7.60
2022-08-28T20:41:18.233Z,6.80
2022-08-28T20:43:47.178Z,7.30
2022-08-28T20:46:19.741Z,7.80
2022-08-28T20:48:47.621Z,7.00
2022-08-28T20:51:15.248Z,7.70
2022-08-28T20:53:42.886Z,6.80
2022-08-28T20:56:10.622Z,7.30
2022-08-28T20:58:38.386Z,7.60
2022-08-28T21:01:06.238Z,8.40
2022-08-28T21:03:34.072Z,8.20
2022-08-28T21:06:01.873Z,7.80
2022-08-28T21:08:29.473Z,8.20
2022-08-28T21:10:57.066Z,7.30
2022-08-28T21:13:24.764Z,7.30
2022-08-28T21:15:52.481Z,6.40
2022-08-28T21:18:20.102Z,8.20
2022-08-28T21:20:48.097Z,7.20
2022-08-28T21:23:15.748Z,8.50
2022-08-28T21:25:43.397Z,8.00
2022-08-28T21:28:11.050Z,7.90
2022-08-28T21:30:41.436Z,8.00
2022-08-28T21:33:09.195Z,7.10
2022-08-28T21:35:36.832Z,6.20
2022-08-28T21:38:05.090Z,6.70
2022-08-28T21:40:35.144Z,6.50
2022-08-28T21:43:02.916Z,5.40
2022-08-28T21:45:30.526Z,6.20
2022-08-28T21:47:58.474Z,6.00
2022-08-28T21:50:29.081Z,6.90
2022-08-28T21:52:56.779Z,7.00
2022-08-28T21:55:24.876Z,6.20
2022-08-28T21:57:52.460Z,5.10
2022-08-28T22:00:23.418Z,4.40
2022-08-28T22:02:51.366Z,5.00
2022-08-28T22:05:19.823Z,4.90
2022-08-28T22:07:48.132Z,4.20
2022-08-28T22:10:15.865Z,4.80
2022-08-28T22:12:43.511Z,4.40
2022-08-28T22:15:11.343Z,4.50
2022-08-28T22:17:38.952Z,4.70
2022-08-28T22:20:07.008Z,4.70
2022-08-28T22:22:50.662Z,4.90
2022-08-28T22:25:18.322Z,5.40
2022-08-28T22:27:45.906Z,5.50
2022-08-28T22:30:13.669Z,6.20
2022-08-28T22:32:41.298Z,5.00
2022-08-28T22:35:10.414Z,5.70
2022-08-28T22:37:38.104Z,5.50
2022-08-28T22:40:09.464Z,6.10
2022-08-28T22:42:41.542Z,5.90
2022-08-28T22:45:10.142Z,6.20
2022-08-28T22:47:38.444Z,5.60
2022-08-28T22:50:06.916Z,5.80
2022-08-28T22:52:34.733Z,5.60
2022-08-28T22:55:02.659Z,5.60
2022-08-28T22:57:34.429Z,6.00
2022-08-28T23:00:04.452Z,6.50
2022-08-28T23:02:32.654Z,6.70
2022-08-28T23:05:00.461Z,6.30
2022-08-28T23:07:28.216Z,6.40
2022-08-28T23:09:56.623Z,6.60
2022-08-28T23:12:24.607Z,6.70
2022-08-28T23:14:53.114Z,6.50
2022-08-28T23:17:20.730Z,6.10
2022-08-28T23:19:48.503Z,6.50
2022-08-28T23:22:17.703Z,6.10
2022-08-28T23:24:46.791Z,6.40
2022-08-28T23:27:35.275Z,6.60
2022-08-28T23:30:05.754Z,6.30
2022-08-28T23:32:34.072Z,6.60
2022-08-28T23:35:02.118Z,6.70
2022-08-28T23:37:36.978Z,6.90
2022-08-28T23:40:12.616Z,6.60
2022-08-28T23:42:41.283Z,6.40
2022-08-28T23:45:10.582Z,6.20
2022-08-28T23:47:40.406Z,6.20
2022-08-28T23:50:12.470Z,6.20
2022-08-28T23:52:40.285Z,6.00
2022-08-28T23:55:09.675Z,6.80
2022-08-28T23:57:38.537Z,7.00
